Time;durP1;ratioP1;P1;durP2;ratioP2;P2;SDS_P1;SDS_P2;PMS_P1;PMS_P2;Temp;Humidity;BMP_temperature;BMP_pressure;BME280_temperature;BME280_humidity;BME280_pressure;Samples;Min_cycle;Max_cycle;Signal;HPM_P1;HPM_P2
2022/12/03 00:01:18;;;;;;;32.25;14.32;;;;;;;0.85;96.10;101942.00;4997580;28;20424;-76
2022/12/03 00:03:43;;;;;;;33.53;16.80;;;;;;;0.85;96.55;101942.00;4997143;28;20034;-76
2022/12/03 00:06:09;;;;;;;33.55;15.68;;;;;;;0.81;95.96;101937.94;4995659;28;20535;-76
2022/12/03 00:08:35;;;;;;;39.45;16.85;;;;;;;0.75;96.56;101939.88;4998129;28;20030;-76
2022/12/03 00:11:00;;;;;;;31.40;15.80;;;;;;;0.80;96.31;101933.72;5002677;28;20057;-76
2022/12/03 00:13:25;;;;;;;36.53;16.88;;;;;;;0.76;96.16;101945.78;4989411;28;20045;-76
2022/12/03 00:15:51;;;;;;;34.22;15.70;;;;;;;0.73;96.90;101940.81;4995529;28;20048;-76
2022/12/03 00:18:16;;;;;;;34.42;16.08;;;;;;;0.71;96.41;101934.94;5000718;28;20529;-75
2022/12/03 00:20:42;;;;;;;33.35;15.25;;;;;;;0.69;97.24;101942.66;4998323;28;20392;-76
2022/12/03 00:23:07;;;;;;;32.08;15.73;;;;;;;0.72;96.76;101939.97;4999824;28;20034;-76
2022/12/03 00:25:33;;;;;;;31.25;14.70;;;;;;;0.75;95.90;101933.91;5002605;28;20053;-76
2022/12/03 00:27:58;;;;;;;35.13;16.05;;;;;;;0.74;96.10;101935.63;4998284;28;20033;-76
2022/12/03 00:30:24;;;;;;;32.10;14.70;;;;;;;0.72;96.21;101931.50;5000301;28;20034;-76
2022/12/03 00:32:49;;;;;;;32.90;15.77;;;;;;;0.69;96.68;101936.72;5001714;28;20034;-76
2022/12/03 00:35:15;;;;;;;32.05;15.45;;;;;;;0.76;96.40;101936.41;5004913;28;20619;-76
2022/12/03 00:37:41;;;;;;;31.88;14.95;;;;;;;0.87;96.57;101924.91;5022353;28;20059;-76
2022/12/03 00:40:08;;;;;;;31.50;16.00;;;;;;;0.82;95.77;101927.66;5018844;28;20266;-76
2022/12/03 00:42:33;;;;;;;31.63;14.30;;;;;;;0.76;96.06;101930.47;5014647;28;20038;-76
2022/12/03 00:44:59;;;;;;;34.78;14.75;;;;;;;0.83;95.96;101926.78;4983403;28;20041;-76
2022/12/03 00:47:24;;;;;;;30.05;15.13;;;;;;;0.72;96.39;101934.88;4994561;28;20041;-76
2022/12/03 00:49:50;;;;;;;29.00;13.82;;;;;;;0.75;96.15;101931.34;5013280;28;20052;-76
2022/12/03 00:52:15;;;;;;;30.92;13.73;;;;;;;0.72;95.58;101924.66;4998859;28;20046;-76
2022/12/03 00:54:41;;;;;;;27.85;14.23;;;;;;;0.78;95.51;101923.56;5002301;28;20088;-76
2022/12/03 00:57:06;;;;;;;28.27;13.65;;;;;;;0.75;96.00;101931.34;5015111;28;20045;-76
2022/12/03 00:59:32;;;;;;;31.30;14.65;;;;;;;0.69;95.95;101918.84;5020508;28;20033;-76
2022/12/03 01:01:57;;;;;;;31.75;15.02;;;;;;;0.72;96.26;101934.06;5020079;28;20049;-76
2022/12/03 01:04:23;;;;;;;32.05;13.88;;;;;;;0.70;96.43;101921.34;5021497;28;20029;-76
2022/12/03 01:06:48;;;;;;;31.42;14.73;;;;;;;0.73;96.37;101923.75;5018511;28;20641;-76
2022/12/03 01:09:13;;;;;;;28.58;14.40;;;;;;;0.68;96.38;101928.25;5021284;28;20471;-76
2022/12/03 01:11:40;;;;;;;35.00;14.65;;;;;;;0.67;97.24;101925.75;5007069;28;20398;-75
2022/12/03 01:14:08;;;;;;;29.67;14.25;;;;;;;0.83;96.34;101928.47;4996860;28;20034;-76
2022/12/03 01:16:34;;;;;;;30.38;13.80;;;;;;;0.79;96.59;101932.88;4993969;28;20054;-76
2022/12/03 01:19:00;;;;;;;27.45;13.55;;;;;;;0.81;96.50;101928.56;4995932;28;20056;-76
2022/12/03 01:21:26;;;;;;;33.22;14.60;;;;;;;0.82;96.58;101929.38;5006819;28;20052;-76
2022/12/03 01:23:51;;;;;;;31.30;14.55;;;;;;;0.94;95.30;101931.41;5017088;28;20439;-76
2022/12/03 01:26:17;;;;;;;27.00;12.85;;;;;;;0.93;95.54;101932.31;5008985;28;20049;-76
2022/12/03 01:28:42;;;;;;;31.95;14.52;;;;;;;0.85;95.57;101935.19;4999995;28;20044;-75
2022/12/03 01:33:52;;;;;;;31.73;14.57;;;;;;;0.80;96.48;101939.66;5015573;28;20033;-76
2022/12/03 01:36:17;;;;;;;30.88;14.13;;;;;;;0.92;96.77;101930.63;5012607;28;20103;-76
2022/12/03 01:38:43;;;;;;;31.25;13.95;;;;;;;0.87;96.15;101938.50;5004427;28;20036;-76
2022/12/03 01:41:08;;;;;;;30.08;14.73;;;;;;;0.91;96.00;101940.03;5014518;28;21062;-76
2022/12/03 01:43:34;;;;;;;32.67;14.07;;;;;;;0.88;95.15;101935.03;5017009;28;20041;-76
2022/12/03 01:46:00;;;;;;;29.58;14.20;;;;;;;0.83;96.06;101926.78;5010748;28;20042;-76
2022/12/03 01:48:29;;;;;;;32.30;14.40;;;;;;;0.83;96.76;101931.88;4989739;28;20045;-76
2022/12/03 01:50:55;;;;;;;31.63;14.88;;;;;;;0.77;97.01;101925.31;4976511;28;20042;-76
2022/12/03 01:53:20;;;;;;;41.67;22.02;;;;;;;0.88;96.53;101931.66;4992127;28;20096;-76
2022/12/03 01:55:46;;;;;;;31.92;15.55;;;;;;;0.95;96.09;101922.84;4997458;28;20658;-75
2022/12/03 01:58:14;;;;;;;30.63;15.35;;;;;;;0.92;95.48;101930.63;4997546;28;20041;-75
2022/12/03 02:00:39;;;;;;;37.45;16.05;;;;;;;0.86;95.70;101928.34;4994351;28;20046;-76
2022/12/03 02:03:17;;;;;;;36.15;15.95;;;;;;;0.83;96.25;101926.78;4999273;28;20067;-76
2022/12/03 02:05:42;;;;;;;40.80;15.82;;;;;;;0.81;97.31;101923.44;5001011;28;20096;-75
2022/12/03 02:08:26;;;;;;;31.08;14.38;;;;;;;0.93;97.18;101920.34;5002148;28;20034;-76
2022/12/03 02:10:52;;;;;;;36.38;15.65;;;;;;;0.93;96.31;101919.53;4999313;28;20065;-76
2022/12/03 02:13:18;;;;;;;30.13;13.20;;;;;;;0.91;95.92;101922.16;5011057;28;20033;-76
2022/12/03 02:15:44;;;;;;;33.75;15.85;;;;;;;0.84;96.18;101919.94;5009941;28;20042;-76
2022/12/03 02:18:09;;;;;;;37.08;15.68;;;;;;;0.89;96.19;101916.28;5007861;28;20030;-76
2022/12/03 02:20:58;;;;;;;34.60;15.68;;;;;;;0.96;95.88;101914.28;5009089;28;21029;-76
2022/12/03 02:23:55;;;;;;;37.50;15.10;;;;;;;0.90;96.16;101917.91;5027068;28;20041;-75
2022/12/03 02:26:21;;;;;;;34.00;14.52;;;;;;;0.94;95.79;101918.63;5024539;28;20534;-76
2022/12/03 02:28:46;;;;;;;30.48;15.73;;;;;;;0.84;96.47;101913.09;5025769;28;20037;-76
2022/12/03 02:31:12;;;;;;;32.30;15.10;;;;;;;0.93;96.21;101911.88;5022589;28;20060;-76
2022/12/03 02:33:38;;;;;;;30.13;14.52;;;;;;;0.86;97.16;101906.19;5026720;28;20049;-75
2022/12/03 02:36:04;;;;;;;31.50;13.90;;;;;;;0.90;97.33;101907.72;5011493;28;20880;-75
2022/12/03 02:38:33;;;;;;;33.10;14.13;;;;;;;0.95;95.91;101908.34;5030345;28;20032;-76
2022/12/03 02:41:07;;;;;;;28.92;13.55;;;;;;;0.94;95.75;101904.16;5014406;28;20038;-76
2022/12/03 02:43:33;;;;;;;32.63;13.77;;;;;;;0.90;95.55;101897.50;5000133;28;20396;-76
2022/12/03 02:46:01;;;;;;;31.60;14.52;;;;;;;0.84;96.34;101900.31;5023580;28;20042;-76
2022/12/03 02:48:36;;;;;;;34.60;15.15;;;;;;;0.83;96.43;101898.69;5019067;28;20037;-75
2022/12/03 02:51:05;;;;;;;37.58;17.50;;;;;;;0.80;97.12;101898.78;5016111;28;20072;-76
2022/12/03 02:53:41;;;;;;;34.53;15.88;;;;;;;0.82;97.82;101891.06;5021901;28;20052;-76
2022/12/03 02:56:08;;;;;;;29.95;14.50;;;;;;;0.86;97.66;101892.59;5020174;28;20656;-76
2022/12/03 02:58:34;;;;;;;36.72;16.70;;;;;;;0.85;97.26;101891.78;5020364;28;20029;-76
2022/12/03 03:01:03;;;;;;;35.08;15.13;;;;;;;0.87;96.90;101887.44;5007047;28;20044;-76
2022/12/03 03:03:31;;;;;;;40.58;17.63;;;;;;;0.85;97.66;101888.38;4998263;28;20673;-76
2022/12/03 03:05:58;;;;;;;31.92;15.25;;;;;;;0.88;97.53;101889.06;5008773;28;20053;-76
2022/12/03 03:08:24;;;;;;;34.40;15.05;;;;;;;0.89;96.77;101887.38;5015361;28;20108;-76
2022/12/03 03:10:50;;;;;;;34.90;15.40;;;;;;;0.85;96.36;101886.66;5019362;28;20439;-76
2022/12/03 03:13:19;;;;;;;35.28;15.27;;;;;;;0.91;96.51;101893.22;5022061;28;20040;-76
2022/12/03 03:15:45;;;;;;;30.85;15.07;;;;;;;0.83;96.59;101890.16;5015127;28;20503;-76
2022/12/03 03:18:13;;;;;;;35.20;15.85;;;;;;;0.83;96.93;101888.47;5022447;28;20040;-76
2022/12/03 03:20:39;;;;;;;32.60;15.55;;;;;;;0.78;97.35;101886.09;5018717;28;20045;-76
2022/12/03 03:23:11;;;;;;;35.17;16.25;;;;;;;0.80;97.83;101893.69;5015089;28;20037;-76
2022/12/03 03:25:38;;;;;;;34.15;16.25;;;;;;;0.74;97.58;101889.69;5017735;28;20095;-75
2022/12/03 03:28:04;;;;;;;40.13;17.73;;;;;;;0.75;96.91;101887.94;5025033;28;20033;-74
2022/12/03 03:30:30;;;;;;;31.48;15.27;;;;;;;0.80;97.83;101880.09;5019360;28;20055;-74
2022/12/03 03:32:57;;;;;;;34.00;15.43;;;;;;;0.81;97.31;101881.75;5020505;28;20049;-74
2022/12/03 03:35:23;;;;;;;32.15;15.35;;;;;;;0.92;96.83;101893.19;5019077;28;20406;-74
2022/12/03 03:37:50;;;;;;;32.72;14.50;;;;;;;0.76;96.93;101884.50;5035957;28;20116;-74
2022/12/03 03:40:15;;;;;;;35.55;15.30;;;;;;;0.76;97.08;101887.06;5031255;28;20495;-74
2022/12/03 03:42:41;;;;;;;36.45;16.60;;;;;;;0.79;96.42;101884.34;5020599;28;20066;-74
2022/12/03 03:45:08;;;;;;;40.42;16.70;;;;;;;0.84;96.40;101885.00;5017962;28;20033;-74
2022/12/03 03:47:33;;;;;;;35.67;15.27;;;;;;;0.84;96.29;101884.19;5022240;28;20033;-74
2022/12/03 03:49:59;;;;;;;41.08;15.45;;;;;;;0.82;96.71;101883.41;5021407;28;20047;-74
2022/12/03 03:52:25;;;;;;;34.83;15.23;;;;;;;0.76;97.15;101879.41;5010537;28;20056;-74
2022/12/03 03:54:50;;;;;;;37.17;15.50;;;;;;;0.78;97.04;101880.16;5008802;28;20404;-74
2022/12/03 03:57:16;;;;;;;35.70;14.27;;;;;;;0.82;96.96;101868.91;5023008;28;20045;-74
2022/12/03 03:59:41;;;;;;;40.47;16.52;;;;;;;0.74;96.96;101866.69;5023165;28;20068;-74
2022/12/03 04:02:17;;;;;;;36.45;16.23;;;;;;;0.76;96.89;101876.84;5013065;28;20063;-74
2022/12/03 04:04:43;;;;;;;34.17;14.57;;;;;;;0.75;97.50;101867.50;5024474;28;20160;-74
2022/12/03 04:07:08;;;;;;;36.08;15.82;;;;;;;0.83;97.45;101870.59;5017858;28;20057;-74
2022/12/03 04:09:34;;;;;;;37.50;16.00;;;;;;;0.85;97.31;101870.50;5023184;28;20040;-74
2022/12/03 04:14:43;;;;;;;36.85;16.35;;;;;;;0.74;97.93;101865.88;5021138;28;20037;-74
2022/12/03 04:17:09;;;;;;;37.45;15.90;;;;;;;0.76;97.80;101866.63;5018051;28;20034;-74
2022/12/03 04:19:34;;;;;;;37.10;16.40;;;;;;;0.75;98.05;101859.84;5024244;28;20399;-73
2022/12/03 04:24:44;;;;;;;40.17;17.20;;;;;;;0.80;97.68;101855.38;5023891;28;20814;-74
2022/12/03 04:29:53;;;;;;;39.75;16.50;;;;;;;0.74;97.85;101853.94;5023039;28;20048;-74
2022/12/03 04:37:49;;;;;;;36.35;16.50;;;;;;;0.73;98.06;101848.88;5021211;28;20470;-74
2022/12/03 04:42:58;;;;;;;35.88;15.88;;;;;;;0.74;96.96;101846.28;5018669;28;20045;-74
2022/12/03 04:45:23;;;;;;;37.33;16.13;;;;;;;0.78;96.63;101849.53;5022671;28;20487;-74
2022/12/03 04:47:49;;;;;;;46.40;16.55;;;;;;;0.72;97.02;101853.16;5023793;28;20055;-73
2022/12/03 04:50:14;;;;;;;43.85;15.75;;;;;;;0.72;97.21;101844.69;5021942;28;20299;-73
2022/12/03 04:52:40;;;;;;;44.33;16.60;;;;;;;0.78;96.87;101839.31;5017040;28;20057;-73
2022/12/03 04:55:05;;;;;;;40.20;15.57;;;;;;;0.76;97.05;101843.66;5020090;28;20033;-73
2022/12/03 04:57:31;;;;;;;42.22;18.45;;;;;;;0.73;96.83;101841.22;5020586;28;20519;-73
2022/12/03 04:59:57;;;;;;;38.45;15.90;;;;;;;0.75;97.43;101847.09;5020979;28;20037;-73
2022/12/03 05:02:22;;;;;;;43.38;15.82;;;;;;;0.76;96.79;101841.09;5010596;28;20046;-73
2022/12/03 05:04:48;;;;;;;36.58;14.70;;;;;;;0.73;96.18;101846.31;4997610;28;20475;-73
2022/12/03 05:07:13;;;;;;;38.55;17.33;;;;;;;0.73;96.78;101842.03;5018605;28;20041;-73
2022/12/03 05:09:38;;;;;;;38.08;16.45;;;;;;;0.73;96.38;101842.03;5014697;28;20049;-73
2022/12/03 05:12:04;;;;;;;39.85;16.27;;;;;;;0.72;96.73;101850.63;5001970;28;20042;-73
2022/12/03 05:14:29;;;;;;;40.13;16.45;;;;;;;0.76;96.85;101848.75;5001877;28;20049;-73
2022/12/03 05:16:55;;;;;;;39.15;16.27;;;;;;;0.74;96.80;101848.81;4995436;28;20037;-73
2022/12/03 05:20:40;;;;;;;35.80;14.85;;;;;;;0.66;96.87;101845.78;5000971;28;20411;-73
2022/12/03 05:22:06;;;;;;;40.50;15.95;;;;;;;0.65;97.43;101853.50;4995789;28;20115;-73
2022/12/03 05:24:31;;;;;;;41.65;15.95;;;;;;;0.76;96.61;101846.22;4988368;28;20476;-73
2022/12/03 05:26:57;;;;;;;37.85;15.30;;;;;;;0.65;96.76;101858.59;5011912;28;20046;-73
2022/12/03 05:29:22;;;;;;;38.97;16.73;;;;;;;0.63;97.10;101862.94;5015280;28;20052;-73
2022/12/03 05:31:48;;;;;;;43.42;17.10;;;;;;;0.67;96.90;101854.25;5017661;28;20041;-73
2022/12/03 05:34:13;;;;;;;37.95;16.38;;;;;;;0.69;96.69;101844.81;5015679;28;20041;-73
2022/12/03 05:36:39;;;;;;;43.65;16.40;;;;;;;0.67;97.24;101851.72;5018890;28;20045;-72
2022/12/03 05:39:04;;;;;;;41.13;15.45;;;;;;;0.65;96.67;101854.31;5004716;28;20119;-73
2022/12/03 05:44:14;;;;;;;39.17;15.05;;;;;;;0.63;97.03;101847.63;5001198;28;20037;-74
2022/12/03 05:46:39;;;;;;;40.75;16.42;;;;;;;0.64;97.05;101854.38;5003644;28;20378;-73
2022/12/03 05:49:05;;;;;;;43.80;16.17;;;;;;;0.69;96.55;101847.38;5001561;28;20030;-73
2022/12/03 05:51:30;;;;;;;37.80;16.38;;;;;;;0.63;96.66;101847.63;4990394;28;20511;-73
2022/12/03 05:53:56;;;;;;;38.78;15.48;;;;;;;0.66;96.98;101844.94;4994007;28;20072;-73
2022/12/03 05:56:22;;;;;;;38.88;15.18;;;;;;;0.61;96.77;101847.69;4999733;28;20050;-73
2022/12/03 05:58:48;;;;;;;38.50;14.45;;;;;;;0.62;96.85;101843.41;5000012;28;20034;-73
2022/12/03 06:01:13;;;;;;;42.40;15.95;;;;;;;0.61;97.54;101851.97;4998136;28;20523;-73
2022/12/03 06:03:38;;;;;;;44.10;17.05;;;;;;;0.58;97.31;101843.56;4994660;28;20045;-73
2022/12/03 06:06:04;;;;;;;40.92;16.05;;;;;;;0.53;97.94;101850.56;4996393;28;20045;-73
2022/12/03 06:08:30;;;;;;;43.58;15.25;;;;;;;0.60;97.43;101852.84;5001506;28;20503;-73
2022/12/03 06:10:55;;;;;;;38.83;14.38;;;;;;;0.58;96.99;101852.91;5002701;28;20073;-73
2022/12/03 06:13:21;;;;;;;42.08;14.77;;;;;;;0.61;96.49;101855.34;4980018;28;20049;-73
2022/12/03 06:15:46;;;;;;;37.40;15.30;;;;;;;0.62;96.09;101845.97;4984288;28;20058;-73
2022/12/03 06:18:11;;;;;;;47.42;15.77;;;;;;;0.62;96.26;101848.50;4999322;28;20030;-73
2022/12/03 06:20:37;;;;;;;43.70;15.85;;;;;;;0.52;96.30;101845.53;4996397;28;20165;-73
2022/12/03 06:23:03;;;;;;;45.00;15.30;;;;;;;0.47;95.95;101845.75;4995227;28;20037;-73
2022/12/03 06:25:28;;;;;;;43.80;14.93;;;;;;;0.51;96.51;101839.59;4999481;28;20053;-73
2022/12/03 06:27:53;;;;;;;46.25;15.55;;;;;;;0.58;96.15;101846.13;4991807;28;20038;-73
2022/12/03 06:30:19;;;;;;;41.70;16.25;;;;;;;0.53;95.71;101842.09;4998920;28;20488;-73
2022/12/03 06:32:44;;;;;;;41.85;15.60;;;;;;;0.53;95.43;101837.81;4982230;28;20026;-73
2022/12/03 06:35:11;;;;;;;42.63;16.27;;;;;;;0.50;96.11;101839.66;4998798;28;20037;-73
2022/12/03 06:37:36;;;;;;;45.83;16.02;;;;;;;0.41;96.53;101829.84;4993207;28;20057;-73
2022/12/03 06:40:02;;;;;;;50.33;16.13;;;;;;;0.38;96.65;101841.03;4996637;28;20044;-73
2022/12/03 06:42:28;;;;;;;40.58;15.38;;;;;;;0.43;96.34;101833.97;4995347;28;20038;-73
2022/12/03 06:44:53;;;;;;;44.75;15.70;;;;;;;0.49;96.36;101832.88;4992030;28;20041;-73
2022/12/03 06:47:19;;;;;;;44.85;15.32;;;;;;;0.49;95.99;101832.88;4991890;28;20386;-73
2022/12/03 06:49:44;;;;;;;45.53;14.60;;;;;;;0.40;96.11;101834.13;4988420;28;20129;-73
2022/12/03 06:52:10;;;;;;;42.58;15.30;;;;;;;0.46;96.11;101835.59;4995180;28;20586;-73
2022/12/03 06:54:35;;;;;;;43.05;14.57;;;;;;;0.40;95.93;101836.69;4998751;28;20022;-73
2022/12/03 06:57:01;;;;;;;44.25;15.23;;;;;;;0.42;96.19;101834.06;4981090;28;20500;-73
2022/12/03 06:59:26;;;;;;;48.60;16.02;;;;;;;0.39;95.82;101840.13;4998185;28;20156;-73
2022/12/03 07:01:52;;;;;;;41.85;15.77;;;;;;;0.36;95.97;101842.81;4997543;28;20412;-73
2022/12/03 07:04:17;;;;;;;46.20;16.65;;;;;;;0.33;95.95;101840.38;4996838;28;20030;-73
2022/12/03 07:06:42;;;;;;;45.85;15.52;;;;;;;0.28;96.46;101844.84;4999956;28;20423;-73
2022/12/03 07:09:08;;;;;;;49.33;16.48;;;;;;;0.29;96.66;101849.06;4997272;28;20045;-73
2022/12/03 07:11:39;;;;;;;43.95;16.67;;;;;;;0.33;96.52;101843.75;4997008;28;20662;-73
2022/12/03 07:14:06;;;;;;;47.10;17.58;;;;;;;0.31;96.00;101840.44;4995050;28;20472;-73
2022/12/03 07:16:34;;;;;;;49.35;16.17;;;;;;;0.34;96.16;101834.38;4998700;28;20081;-73
2022/12/03 07:19:00;;;;;;;41.95;15.45;;;;;;;0.27;95.70;101840.66;4998794;28;20084;-73
2022/12/03 07:21:26;;;;;;;48.90;16.25;;;;;;;0.16;96.40;101841.91;5001328;28;20064;-73
2022/12/03 07:23:51;;;;;;;46.20;15.95;;;;;;;0.14;96.67;101838.59;4997317;28;20066;-73
2022/12/03 07:26:17;;;;;;;45.42;15.88;;;;;;;0.25;96.54;101835.59;4986223;28;20081;-73
2022/12/03 07:28:42;;;;;;;44.72;15.80;;;;;;;0.19;96.48;101835.88;5008299;28;20041;-73
2022/12/03 07:31:08;;;;;;;42.45;14.95;;;;;;;0.18;96.62;101839.28;4999546;28;20038;-73
2022/12/03 07:33:33;;;;;;;52.30;17.00;;;;;;;0.15;96.40;101836.84;5004005;28;20034;-73
2022/12/03 07:35:59;;;;;;;48.28;16.25;;;;;;;0.10;97.20;101834.50;5001738;28;20046;-73
2022/12/03 07:38:24;;;;;;;47.60;16.83;;;;;;;0.12;97.47;101837.00;4999290;28;20037;-76
2022/12/03 07:40:50;;;;;;;57.40;20.83;;;;;;;0.16;98.02;101843.63;4995582;28;20088;-74
2022/12/03 07:43:15;;;;;;;50.83;18.15;;;;;;;0.14;96.99;101835.22;4998232;28;20037;-73
2022/12/03 07:45:41;;;;;;;47.53;15.85;;;;;;;0.22;97.04;101838.25;4982007;28;20085;-73
2022/12/03 07:48:06;;;;;;;59.33;21.02;;;;;;;0.23;96.61;101841.63;4985510;28;20026;-73
2022/12/03 07:50:32;;;;;;;44.70;16.42;;;;;;;0.34;96.81;101839.47;5003072;28;20041;-73
2022/12/03 07:52:57;;;;;;;43.72;16.67;;;;;;;0.26;96.78;101842.34;5000257;28;20480;-72
2022/12/03 07:55:24;;;;;;;45.00;16.70;;;;;;;0.23;96.86;101837.38;4981982;28;20089;-73
2022/12/03 07:57:49;;;;;;;45.00;15.98;;;;;;;0.29;96.33;101834.56;4999716;28;20037;-73
2022/12/03 08:00:15;;;;;;;38.88;15.95;;;;;;;0.37;96.09;101845.28;4982537;28;20022;-73
2022/12/03 08:02:41;;;;;;;60.65;16.33;;;;;;;0.29;96.22;101839.69;5001705;28;20046;-73
2022/12/03 08:05:07;;;;;;;47.05;16.23;;;;;;;0.35;96.08;101841.97;4981602;28;20045;-73
2022/12/03 08:07:32;;;;;;;51.53;17.20;;;;;;;0.46;95.67;101844.06;5020599;28;20050;-73
2022/12/03 08:09:58;;;;;;;49.20;15.75;;;;;;;0.48;95.32;101844.84;5008955;28;20037;-73
2022/12/03 08:12:41;;;;;;;38.65;15.60;;;;;;;0.53;94.72;101848.03;5019394;28;20054;-73
2022/12/03 08:15:16;;;;;;;44.83;15.15;;;;;;;0.66;94.20;101844.94;5019546;28;20464;-73
2022/12/03 08:17:42;;;;;;;47.22;16.67;;;;;;;0.66;93.74;101839.81;5018149;28;20046;-73
2022/12/03 08:20:18;;;;;;;45.47;16.77;;;;;;;0.68;93.33;101836.34;5023854;28;20515;-74
2022/12/03 08:22:45;;;;;;;47.28;16.20;;;;;;;0.63;93.02;101838.25;5020809;28;20573;-73
2022/12/03 08:25:24;;;;;;;43.70;15.90;;;;;;;0.67;92.83;101839.75;4997696;28;20476;-74
2022/12/03 08:27:52;;;;;;;43.58;15.35;;;;;;;0.85;92.86;101844.97;4999129;28;20034;-73
2022/12/03 08:30:18;;;;;;;44.30;16.45;;;;;;;0.81;91.36;101828.97;4995876;28;20052;-73
2022/12/03 08:32:44;;;;;;;42.80;15.75;;;;;;;0.74;91.99;101835.22;4984476;28;20491;-73
2022/12/03 08:35:16;;;;;;;44.95;15.80;;;;;;;0.73;91.45;101833.56;5014496;28;20044;-73
2022/12/03 08:37:41;;;;;;;46.65;15.50;;;;;;;0.73;91.92;101838.66;4995208;28;20038;-73
2022/12/03 08:40:21;;;;;;;43.55;15.68;;;;;;;0.79;91.05;101840.94;5000563;28;20026;-73
2022/12/03 08:42:47;;;;;;;44.63;15.60;;;;;;;0.79;91.30;101843.50;4997804;28;20041;-73
2022/12/03 08:45:27;;;;;;;41.03;14.65;;;;;;;0.89;90.89;101844.78;4992615;28;20452;-73
2022/12/03 08:48:09;;;;;;;36.47;14.38;;;;;;;0.81;90.77;101846.00;5019571;28;20025;-73
2022/12/03 08:50:39;;;;;;;45.50;14.75;;;;;;;0.76;90.43;101841.09;5020670;28;20045;-73
2022/12/03 08:53:23;;;;;;;37.00;14.45;;;;;;;0.77;89.48;101846.16;5016149;28;20136;-73
2022/12/03 08:55:58;;;;;;;37.65;13.30;;;;;;;0.82;89.93;101848.47;5016863;28;20045;-73
2022/12/03 08:58:32;;;;;;;39.10;14.48;;;;;;;0.79;89.53;101840.94;5018489;28;20457;-73
2022/12/03 09:01:19;;;;;;;37.00;13.70;;;;;;;0.86;89.50;101846.63;5030409;28;20057;-73
2022/12/03 09:03:49;;;;;;;35.42;14.52;;;;;;;0.94;89.98;101847.09;5020770;28;20127;-73
2022/12/03 09:06:15;;;;;;;42.65;14.43;;;;;;;0.95;88.42;101847.03;5020552;28;20033;-73
2022/12/03 09:08:40;;;;;;;37.20;12.90;;;;;;;0.96;88.91;101847.88;5015208;28;20038;-73
2022/12/03 09:11:06;;;;;;;34.70;13.57;;;;;;;1.09;88.10;101845.59;5016660;28;20403;-73
2022/12/03 09:13:31;;;;;;;35.55;14.35;;;;;;;1.11;87.90;101849.75;5026050;28;20026;-73
2022/12/03 09:15:57;;;;;;;38.13;13.90;;;;;;;1.19;87.42;101840.91;5021898;28;20269;-73
2022/12/03 09:18:22;;;;;;;38.75;15.30;;;;;;;1.23;87.32;101845.81;5025258;28;20040;-73
2022/12/03 09:20:48;;;;;;;39.72;15.68;;;;;;;1.30;86.42;101847.19;5019168;28;20534;-73
2022/12/03 09:23:13;;;;;;;36.95;14.73;;;;;;;1.33;86.93;101848.78;5024970;28;20537;-73
2022/12/03 09:25:39;;;;;;;38.38;13.98;;;;;;;1.35;87.41;101847.78;5024878;28;20053;-73
2022/12/03 09:28:04;;;;;;;36.88;13.75;;;;;;;1.42;87.57;101843.25;5019402;28;20041;-73
2022/12/03 09:30:30;;;;;;;38.38;14.40;;;;;;;1.45;88.45;101849.94;5019018;28;20439;-73
2022/12/03 09:32:55;;;;;;;36.20;13.77;;;;;;;1.36;87.24;101846.09;5020708;28;20033;-73
2022/12/03 09:35:21;;;;;;;43.83;14.70;;;;;;;1.52;85.59;101848.75;5021308;28;20044;-73
2022/12/03 09:37:47;;;;;;;39.25;15.70;;;;;;;1.37;85.69;101847.72;5022563;28;20028;-73
2022/12/03 09:40:13;;;;;;;34.60;13.63;;;;;;;1.34;86.34;101843.59;5017070;28;20091;-73
2022/12/03 09:42:38;;;;;;;35.08;13.68;;;;;;;1.30;86.86;101838.69;5020094;28;20092;-73
2022/12/03 09:45:09;;;;;;;34.95;13.38;;;;;;;1.41;87.17;101845.84;5021023;28;20376;-73
2022/12/03 09:47:36;;;;;;;35.53;13.80;;;;;;;1.36;86.71;101843.53;5019762;28;20038;-73
2022/12/03 09:50:02;;;;;;;37.85;15.13;;;;;;;1.29;87.38;101837.03;5023270;28;20156;-73
2022/12/03 09:52:32;;;;;;;35.85;13.68;;;;;;;1.42;86.38;101837.31;5022455;28;20046;-73
2022/12/03 09:55:02;;;;;;;42.17;13.85;;;;;;;1.47;86.61;101832.78;5022897;28;20029;-73
2022/12/03 09:57:29;;;;;;;35.85;13.95;;;;;;;1.34;86.64;101833.38;5005136;28;20069;-73
2022/12/03 09:59:55;;;;;;;37.83;14.38;;;;;;;1.35;86.46;101829.91;5032463;28;20112;-73
2022/12/03 10:02:33;;;;;;;41.95;14.73;;;;;;;1.32;87.57;101827.50;5019531;28;20116;-73
2022/12/03 10:04:58;;;;;;;37.85;13.60;;;;;;;1.38;86.69;101821.28;5016935;28;20575;-73
2022/12/03 10:07:24;;;;;;;39.20;15.02;;;;;;;1.34;86.12;101814.66;4979638;28;20097;-73
2022/12/03 10:09:50;;;;;;;44.55;15.77;;;;;;;1.26;87.02;101822.69;4998810;28;20252;-73
2022/12/03 10:12:22;;;;;;;39.65;15.18;;;;;;;1.27;88.33;101809.00;5002926;28;20045;-73
2022/12/03 10:14:47;;;;;;;40.77;14.33;;;;;;;1.31;88.39;101814.78;5021561;28;20034;-73
2022/12/03 10:17:13;;;;;;;36.53;14.82;;;;;;;1.38;87.17;101810.25;5020969;28;20506;-73
2022/12/03 10:19:41;;;;;;;35.53;14.05;;;;;;;1.47;86.48;101810.63;5017987;28;20451;-73
2022/12/03 10:22:07;;;;;;;47.40;18.23;;;;;;;1.48;87.09;101808.88;5000741;28;20124;-73
2022/12/03 10:24:35;;;;;;;46.78;16.00;;;;;;;1.52;87.17;101807.84;4998652;28;20030;-73
2022/12/03 10:27:18;;;;;;;55.35;23.17;;;;;;;1.50;86.89;101800.25;5015238;28;20044;-73
2022/12/03 10:29:53;;;;;;;39.90;15.80;;;;;;;1.46;86.81;101793.63;5015265;28;20029;-73
2022/12/03 10:32:37;;;;;;;50.90;20.95;;;;;;;1.50;87.64;101796.88;5014985;28;20064;-73
2022/12/03 10:35:10;;;;;;;42.28;15.93;;;;;;;1.43;87.55;101788.69;5007571;28;20033;-74
2022/12/03 10:37:35;;;;;;;38.10;15.50;;;;;;;1.50;87.34;101786.63;5018757;28;20042;-73
2022/12/03 10:40:09;;;;;;;75.13;34.63;;;;;;;1.55;88.55;101782.13;5019376;28;20052;-73
2022/12/03 10:42:39;;;;;;;59.42;22.63;;;;;;;1.54;88.56;101772.81;5017045;28;20038;-73
2022/12/03 10:45:08;;;;;;;42.58;16.65;;;;;;;1.59;87.46;101768.31;5017746;28;20057;-73
2022/12/03 10:47:33;;;;;;;52.70;19.38;;;;;;;1.54;87.73;101771.09;5019949;28;20057;-73
2022/12/03 10:50:13;;;;;;;41.85;17.02;;;;;;;1.46;87.38;101764.69;5026468;28;20037;-72
2022/12/03 10:52:39;;;;;;;41.55;16.13;;;;;;;1.47;87.41;101762.06;5038781;28;20080;-73
2022/12/03 10:55:04;;;;;;;43.60;17.58;;;;;;;1.48;87.41;101756.03;5023762;28;20061;-73
2022/12/03 10:57:30;;;;;;;43.47;17.77;;;;;;;1.54;87.46;101754.91;5016434;28;20052;-73
2022/12/03 10:59:57;;;;;;;46.15;15.50;;;;;;;1.63;86.92;101751.91;5020690;28;20041;-73
2022/12/03 11:02:23;;;;;;;39.22;15.18;;;;;;;1.49;86.81;101752.59;5019509;28;20041;-73
2022/12/03 11:04:50;;;;;;;52.03;18.33;;;;;;;1.41;87.55;101752.09;5006615;28;20917;-73
2022/12/03 11:07:19;;;;;;;40.03;14.85;;;;;;;1.47;87.97;101750.97;5022994;28;20447;-74
2022/12/03 11:09:47;;;;;;;42.22;16.88;;;;;;;1.61;88.62;101750.34;5021180;28;20038;-74
2022/12/03 11:12:28;;;;;;;38.17;15.52;;;;;;;1.54;86.93;101742.13;5015496;28;20045;-74
2022/12/03 11:14:53;;;;;;;42.00;15.77;;;;;;;1.61;87.26;101735.81;5014481;28;20184;-74
2022/12/03 11:17:42;;;;;;;42.22;16.95;;;;;;;1.67;88.26;101739.81;5024673;28;20471;-74
2022/12/03 11:20:23;;;;;;;47.00;17.05;;;;;;;1.77;86.88;101735.06;5022648;28;20033;-75
2022/12/03 11:22:55;;;;;;;37.75;15.30;;;;;;;1.87;86.23;101736.28;5014221;28;20038;-73
2022/12/03 11:25:23;;;;;;;41.17;16.23;;;;;;;1.87;85.16;101742.19;5017687;28;20041;-75
2022/12/03 11:28:14;;;;;;;46.65;16.88;;;;;;;1.97;85.81;101734.88;5026272;28;20037;-74
2022/12/03 11:30:49;;;;;;;38.13;15.20;;;;;;;2.04;85.99;101730.31;4999692;28;23487;-75
2022/12/03 11:33:20;;;;;;;38.78;15.70;;;;;;;2.04;85.98;101732.88;5024995;28;20037;-74
2022/12/03 11:36:01;;;;;;;39.22;15.82;;;;;;;2.16;86.23;101719.44;5013123;28;20539;-74
2022/12/03 11:38:45;;;;;;;44.35;15.98;;;;;;;2.23;84.51;101723.31;5020864;28;20939;-74
2022/12/03 11:41:11;;;;;;;41.13;16.55;;;;;;;2.28;84.53;101716.25;5006598;28;20175;-74